Cootamundra Airport


Codes: YCTM/CMD
Name: Cootamundra Airport
City:
Country: Australia
Elevation: 1110 ft.

Photos at Cootamundra Airport


   Photos courtesy of SpottingLog. You can add your own sightings and photos by signing up for a free trial today.



No photos found.

Weather at Cootamundra Airport


Time (UTC)DescriptionTempratureWindCloud coverageVisibilityPressureHumidity
21-Jun-2024 12:00Broken Clouds4°C2 mph, SW52%10000m1024hPa91%
21-Jun-2024 15:00Scattered Clouds3°C2 mph, E25%10000m1024hPa90%
21-Jun-2024 18:00Clear Sky3°C2 mph, SE10%10000m1026hPa90%
21-Jun-2024 21:00Clear Sky3°C2 mph, E1%10000m1028hPa92%
22-Jun-2024 00:00Clear Sky9°C4 mph, SE1%10000m1028hPa75%
22-Jun-2024 03:00Clear Sky13°C2 mph, SE0%10000m1026hPa57%
22-Jun-2024 06:00Clear Sky12°C2 mph, NE0%10000m1025hPa66%
22-Jun-2024 09:00Clear Sky6°C0 mph, SE1%10000m1028hPa79%
22-Jun-2024 12:00Clear Sky5°C2 mph, E3%10000m1029hPa84%
22-Jun-2024 15:00Clear Sky3°C4 mph, E0%10000m1028hPa86%
22-Jun-2024 18:00Clear Sky3°C4 mph, SE0%10000m1028hPa88%
22-Jun-2024 21:00Clear Sky2°C4 mph, SE0%10000m1028hPa88%
23-Jun-2024 00:00Clear Sky9°C4 mph, SE3%10000m1027hPa67%
23-Jun-2024 03:00Few Clouds13°C2 mph, SE14%10000m1024hPa58%
23-Jun-2024 06:00Few Clouds13°C2 mph, S14%10000m1022hPa67%
23-Jun-2024 09:00Few Clouds6°C4 mph, S14%10000m1023hPa82%
23-Jun-2024 12:00Clear Sky5°C2 mph, S8%10000m1023hPa82%
23-Jun-2024 15:00Clear Sky4°C2 mph, SE0%10000m1022hPa83%
23-Jun-2024 18:00Clear Sky3°C2 mph, SE0%10000m1021hPa84%
23-Jun-2024 21:00Few Clouds2°C2 mph, E14%10000m1021hPa86%
24-Jun-2024 00:00Few Clouds9°C2 mph, NW21%10000m1021hPa70%
24-Jun-2024 03:00Overcast Clouds11°C7 mph, NW100%10000m1018hPa58%
24-Jun-2024 06:00Overcast Clouds10°C4 mph, NW100%10000m1017hPa65%
24-Jun-2024 09:00Overcast Clouds5°C4 mph, N100%10000m1018hPa80%
24-Jun-2024 12:00Overcast Clouds4°C2 mph, N100%10000m1018hPa83%
24-Jun-2024 15:00Broken Clouds4°C2 mph, NE71%10000m1018hPa84%
24-Jun-2024 18:00Scattered Clouds2°C2 mph, E36%10000m1018hPa85%
24-Jun-2024 21:00Few Clouds3°C4 mph, E23%10000m1018hPa85%
25-Jun-2024 00:00Scattered Clouds10°C7 mph, N30%10000m1018hPa65%
25-Jun-2024 03:00Overcast Clouds10°C7 mph, N85%10000m1016hPa70%
25-Jun-2024 06:00Light Rain11°C9 mph, NW61%10000m1015hPa73%
25-Jun-2024 09:00Light Rain7°C4 mph, NE43%10000m1017hPa83%
25-Jun-2024 12:00Broken Clouds8°C2 mph, N71%10000m1017hPa80%
25-Jun-2024 15:00Overcast Clouds9°C2 mph, NW98%10000m1017hPa78%
25-Jun-2024 18:00Overcast Clouds6°C4 mph, N90%10000m1018hPa85%
25-Jun-2024 21:00Overcast Clouds5°C7 mph, N89%10000m1019hPa88%
26-Jun-2024 00:00Scattered Clouds10°C11 mph, NW46%10000m1020hPa64%
26-Jun-2024 03:00Clear Sky13°C16 mph, NW2%10000m1018hPa47%
26-Jun-2024 06:00Clear Sky12°C13 mph, NW4%10000m1017hPa54%
26-Jun-2024 09:00Clear Sky6°C7 mph, NW6%10000m1020hPa76%